KOKV

Winchester Regional Airport

Winchester, Virginia, USA
METAR KOKV 162355Z AUTO 00000KT 10SM BKN023 OVC029 03/02 A2994 RMK AO2
Observed Flight Rules
Dec-16 @ 23:55 UTC (28 minutes ago) Marginal Visual Flight Rules
Visibility Clouds
10 miles
  • Broken at 2,300' AGL
  • Overcast at 2,900' AGL
Temperatures Readings
Current 3°C / 37°F
Dewpoint 2°C / 36°F
Humidity 93%
Altimeter 29.94" Hg
Pressure 1014 hPa
Elevation 222
METAR KOKV 162355Z AUTO 00000KT 10SM BKN023 OVC029 03/02 A2994 RMK AO2
Observed Flight Rules
Dec-16 @ 23:55 UTC
(28 minutes ago)
MVFR
Clouds
  • Broken at 2,300' AGL
  • Overcast at 2,900' AGL
Temperature Dewpoint
3°C / 37°F 2°C / 36°F
Humidity Altimeter Pressure
93% 29.94" Hg 1014 hPa